Main page
Satellite images 15-day forecastsClimateMarine weather Cyclones Lightning AirportsFAQ Newsletter About
Weather : Europe Africa North America South America Asia Australia-Oceania Others
Languages Contact

London-Luton, England

latitude: 51-52N, longitude: 000-22W, elevation: 160 m


METAR: EGGW 301750Z 29012KT 9999 FEW039 17/11 Q1015
short-TAF: out of date (5957 hours)
long-TAF: EGGW 301657Z 3018/3118 28010KT 9999 SCT025 PROB30 TEMPO 3104/3108 4000 RADZ BKN008

Time: 19:12 (18:12 UTC)

Current weather observation

The report was made 22 minutes ago, at 17:50 UTC  
Wind 12 kt from the West/Northwest
Temperature 17°C
Humidity 68%
Pressure 1015 hPa
Visibility 10 km or more
Few clouds at a height of 3900 ft

Change units

Forecast

The report was made 57 minutes ago, at 17:15 UTC  
Forecast valid from 30 at 18 UTC to 31 at 18 UTC
Wind 10 kt from the West
Visibility 10 km or more
Scattered clouds at a height of 2500 ft
Probability 30% :
Temporary
from 31 at 04 UTC to 31 at 08 UTC
Visibility 4000 m
Broken clouds at a height of 800 ft
rain drizzle
The information on this site is subject to a disclaimer
Weather : Europe Africa North America South America Asia Australia-Oceania Others
Satellite images 15-day forecastsClimateMarine weather Cyclones Lightning AirportsFAQ Languages Contact Newsletter About